Time,TemperatureF,DewpointF,PressureIn,WindDirection,WindDirectionDegrees,WindSpeedMPH,WindSpeedGustMPH,Humidity,HourlyPrecipIn,Conditions,Clouds,dailyrainin,SolarRadiationWatts/m^2,SoftwareType,DateUTC
2013-08-20 00:04:00,66.6,63.9,30.10,SW,227,0.0,0.0,91,0.00,BKN,,0.00,0.0,WeatherDisplay:10.37,2013-08-20 04:04:00,
2013-08-20 00:14:00,66.4,63.7,30.10,SW,227,0.0,0.0,91,0.00,BKN,,0.00,0.0,WeatherDisplay:10.37,2013-08-20 04:14:00,
2013-08-20 00:24:00,66.4,63.7,30.10,SW,227,0.0,1.0,91,0.00,BKN,,0.00,0.0,WeatherDisplay:10.37,2013-08-20 04:24:00,
2013-08-20 00:34:00,66.3,63.6,30.10,SW,227,0.0,0.0,91,0.00,BKN,,0.00,0.0,WeatherDisplay:10.37,2013-08-20 04:34:00,
2013-08-20 00:44:00,66.2,63.5,30.10,SW,226,0.0,2.0,91,0.00,BKN,,0.00,0.0,WeatherDisplay:10.37,2013-08-20 04:44:00,
2013-08-20 00:54:00,66.0,63.6,30.10,SW,227,0.0,1.0,92,0.00,OVC,,0.00,0.0,WeatherDisplay:10.37,2013-08-20 04:54:00,
2013-08-20 01:04:00,66.1,63.7,30.10,SW,227,0.0,2.0,92,0.00,OVC,,0.00,0.0,WeatherDisplay:10.37,2013-08-20 05:04:00,
2013-08-20 01:14:00,66.1,63.7,30.09,SW,227,0.0,2.0,92,0.00,BKN,,0.00,0.0,WeatherDisplay:10.37,2013-08-20 05:14:00,
2013-08-20 01:34:00,66.0,63.6,30.09,SW,227,0.0,2.0,92,0.00,BKN,,0.00,0.0,WeatherDisplay:10.37,2013-08-20 05:34:00,
2013-08-20 01:44:00,65.8,63.4,30.09,SW,227,0.0,0.0,92,0.00,BKN,,0.00,0.0,WeatherDisplay:10.37,2013-08-20 05:44:00,
2013-08-20 01:54:00,65.7,63.3,30.09,SW,227,0.0,0.0,92,0.00,BKN,,0.00,0.0,WeatherDisplay:10.37,2013-08-20 05:54:00,
2013-08-20 02:04:00,65.6,63.2,30.09,SW,227,0.0,0.0,92,0.00,BKN,,0.00,0.0,WeatherDisplay:10.37,2013-08-20 06:04:00,
2013-08-20 02:14:00,65.5,63.1,30.08,SW,227,0.0,2.0,92,0.00,OVC,,0.00,0.0,WeatherDisplay:10.37,2013-08-20 06:14:00,
2013-08-20 02:24:00,65.4,63.0,30.08,SW,227,0.0,0.0,92,0.00,SCT,,0.00,0.0,WeatherDisplay:10.37,2013-08-20 06:24:00,
2013-08-20 02:44:00,65.0,62.6,30.08,SW,227,0.0,0.0,92,0.00,BKN,,0.00,0.0,WeatherDisplay:10.37,2013-08-20 06:44:00,
2013-08-20 02:54:00,64.9,62.5,30.08,SW,227,0.0,0.0,92,0.00,BKN,,0.00,0.0,WeatherDisplay:10.37,2013-08-20 06:54:00,
2013-08-20 03:14:00,64.6,62.5,30.08,SW,227,0.0,0.0,93,0.00,SCT,,0.00,0.0,WeatherDisplay:10.37,2013-08-20 07:14:00,
2013-08-20 03:24:00,64.4,62.3,30.08,SW,227,0.0,0.0,93,0.00,BKN,,0.00,0.0,WeatherDisplay:10.37,2013-08-20 07:24:00,
2013-08-20 03:34:00,64.3,62.2,30.08,SW,227,0.0,0.0,93,0.00,OVC,,0.00,0.0,WeatherDisplay:10.37,2013-08-20 07:34:00,
2013-08-20 03:44:00,64.2,62.1,30.08,SW,227,0.0,0.0,93,0.00,OVC,,0.00,0.0,WeatherDisplay:10.37,2013-08-20 07:44:00,
2013-08-20 03:54:00,64.2,62.1,30.08,SW,227,0.0,0.0,93,0.00,BKN,,0.00,0.0,WeatherDisplay:10.37,2013-08-20 07:54:00,
2013-08-20 04:14:00,63.9,61.8,30.08,SW,227,0.0,0.0,93,0.00,BKN,,0.00,0.0,WeatherDisplay:10.37,2013-08-20 08:14:00,
2013-08-20 04:34:00,63.6,61.6,30.08,SW,227,0.0,0.0,93,0.00,BKN,,0.00,0.0,WeatherDisplay:10.37,2013-08-20 08:34:00,
2013-08-20 04:44:00,63.5,61.4,30.08,SW,227,0.0,0.0,93,0.00,SCT,,0.00,0.0,WeatherDisplay:10.37,2013-08-20 08:44:00,
2013-08-20 04:54:00,63.4,61.3,30.08,SW,227,0.0,0.0,93,0.00,BKN,,0.00,0.0,WeatherDisplay:10.37,2013-08-20 08:54:00,
2013-08-20 05:04:00,63.3,61.2,30.08,SW,227,0.0,0.0,93,0.00,SCT,,0.00,0.0,WeatherDisplay:10.37,2013-08-20 09:04:00,
2013-08-20 05:14:00,63.3,61.2,30.08,SW,227,0.0,0.0,93,0.00,SCT,,0.00,0.0,WeatherDisplay:10.37,2013-08-20 09:14:00,
2013-08-20 05:34:00,63.0,60.9,30.09,SW,227,0.0,0.0,93,0.00,BKN,,0.00,0.0,WeatherDisplay:10.37,2013-08-20 09:34:00,
2013-08-20 05:44:00,63.0,60.9,30.09,SW,227,0.0,0.0,93,0.00,BKN,,0.00,0.0,WeatherDisplay:10.37,2013-08-20 09:44:00,
2013-08-20 05:54:00,63.0,60.9,30.09,SW,227,0.0,0.0,93,0.00,SCT,,0.00,0.0,WeatherDisplay:10.37,2013-08-20 09:54:00,
2013-08-20 06:04:00,62.9,60.8,30.09,SW,227,0.0,0.0,93,0.00,,,0.00,0.0,WeatherDisplay:10.37,2013-08-20 10:04:00,
2013-08-20 06:14:00,62.8,60.7,30.10,SW,227,0.0,0.0,93,0.00,,,0.00,0.0,WeatherDisplay:10.37,2013-08-20 10:14:00,
2013-08-20 06:34:00,62.6,60.8,30.10,SW,227,0.0,0.0,94,0.00,SCT,,0.00,9.0,WeatherDisplay:10.37,2013-08-20 10:34:00,
2013-08-20 06:44:00,62.6,60.5,30.11,SW,226,0.0,2.0,93,0.00,BKN,,0.00,16.0,WeatherDisplay:10.37,2013-08-20 10:44:00,
2013-08-20 06:54:00,62.6,60.9,30.11,SW,226,0.0,1.0,94,0.00,,,0.00,23.0,WeatherDisplay:10.37,2013-08-20 10:54:00,
2013-08-20 07:04:00,62.8,61.0,30.12,SW,226,0.0,0.0,94,0.00,CLR,,0.00,28.0,WeatherDisplay:10.37,2013-08-20 11:04:00,
2013-08-20 07:14:00,63.4,61.6,30.12,SW,225,1.0,3.0,94,0.00,CLR,,0.00,35.0,WeatherDisplay:10.37,2013-08-20 11:14:00,
2013-08-20 07:44:00,64.2,62.4,30.13,SW,227,0.0,0.0,94,0.00,,,0.00,49.0,WeatherDisplay:10.37,2013-08-20 11:44:00,
2013-08-20 07:54:00,64.8,63.4,30.13,SW,227,0.0,0.0,95,0.00,,,0.00,54.0,WeatherDisplay:10.37,2013-08-20 11:54:00,
2013-08-20 08:04:00,65.5,64.0,30.14,SW,226,0.0,0.0,95,0.00,OVC,,0.00,60.0,WeatherDisplay:10.37,2013-08-20 12:04:00,
2013-08-20 08:14:00,66.3,64.8,30.14,SW,227,0.0,1.0,95,0.00,OVC,,0.00,67.0,WeatherDisplay:10.37,2013-08-20 12:14:00,
2013-08-20 08:24:00,66.8,65.3,30.14,SW,227,0.0,1.0,95,0.00,OVC,,0.00,70.0,WeatherDisplay:10.37,2013-08-20 12:24:00,
2013-08-20 08:34:00,67.4,65.9,30.14,SW,227,0.0,1.0,95,0.00,OVC,,0.00,76.0,WeatherDisplay:10.37,2013-08-20 12:34:00,
2013-08-20 08:44:00,67.8,66.1,30.14,SW,227,0.0,1.0,94,0.00,FEW,,0.00,323.0,WeatherDisplay:10.37,2013-08-20 12:44:00,
2013-08-20 08:54:00,70.6,68.5,30.14,SW,226,1.0,3.0,93,0.00,FEW,,0.00,353.0,WeatherDisplay:10.37,2013-08-20 12:54:00,
2013-08-20 09:04:00,72.4,68.3,30.14,SW,216,0.0,1.0,87,0.00,FEW,,0.00,390.0,WeatherDisplay:10.37,2013-08-20 13:04:00,
2013-08-20 09:14:00,73.7,68.5,30.14,SW,216,0.0,1.0,84,0.00,CLR,,0.00,436.0,WeatherDisplay:10.37,2013-08-20 13:14:00,
2013-08-20 09:24:00,74.5,68.6,30.14,SE,139,3.0,5.0,82,0.00,CLR,,0.00,473.0,WeatherDisplay:10.37,2013-08-20 13:24:00,
2013-08-20 09:34:00,75.2,69.0,30.14,ESE,113,0.0,5.0,81,0.00,CLR,,0.00,501.0,WeatherDisplay:10.37,2013-08-20 13:34:00,
2013-08-20 09:44:00,76.1,69.5,30.15,ESE,113,1.0,5.0,80,0.00,CLR,,0.00,533.0,WeatherDisplay:10.37,2013-08-20 13:44:00,
2013-08-20 09:54:00,76.8,70.2,30.15,ESE,103,0.0,6.0,80,0.00,CLR,,0.00,563.0,WeatherDisplay:10.37,2013-08-20 13:54:00,
2013-08-20 10:04:00,77.9,70.1,30.15,East,96,0.0,1.0,77,0.00,CLR,,0.00,587.0,WeatherDisplay:10.37,2013-08-20 14:04:00,
2013-08-20 10:14:00,78.6,69.6,30.15,East,94,0.0,6.0,74,0.00,CLR,,0.00,613.0,WeatherDisplay:10.37,2013-08-20 14:14:00,
2013-08-20 10:24:00,79.4,70.0,30.15,East,91,0.0,5.0,73,0.00,CLR,,0.00,635.0,WeatherDisplay:10.37,2013-08-20 14:24:00,
2013-08-20 10:34:00,80.6,69.9,30.15,East,90,2.0,5.0,70,0.00,CLR,,0.00,670.0,WeatherDisplay:10.37,2013-08-20 14:34:00,
2013-08-20 10:44:00,81.5,69.1,30.15,East,90,2.0,5.0,66,0.00,CLR,,0.00,700.0,WeatherDisplay:10.37,2013-08-20 14:44:00,
2013-08-20 10:54:00,81.1,68.7,30.15,East,96,0.0,5.0,66,0.00,BKN,,0.00,766.0,WeatherDisplay:10.37,2013-08-20 14:54:00,
2013-08-20 11:04:00,81.3,67.5,30.15,ENE,68,0.0,6.0,63,0.00,OVC,,0.00,171.0,WeatherDisplay:10.37,2013-08-20 15:04:00,
2013-08-20 11:14:00,81.0,67.3,30.15,ENE,57,0.0,2.0,63,0.00,BKN,,0.00,183.0,WeatherDisplay:10.37,2013-08-20 15:14:00,
2013-08-20 11:24:00,82.3,68.0,30.15,ENE,57,0.0,5.0,62,0.00,CLR,,0.00,865.0,WeatherDisplay:10.37,2013-08-20 15:24:00,
2013-08-20 11:34:00,84.1,68.2,30.14,ENE,60,0.0,7.0,59,0.00,CLR,,0.00,923.0,WeatherDisplay:10.37,2013-08-20 15:34:00,
2013-08-20 11:44:00,82.3,67.0,30.14,ENE,60,1.0,5.0,60,0.00,OVC,,0.00,974.0,WeatherDisplay:10.37,2013-08-20 15:44:00,
2013-08-20 11:54:00,83.1,68.2,30.14,NNE,31,3.0,7.0,61,0.00,OVC,,0.00,258.0,WeatherDisplay:10.37,2013-08-20 15:54:00,
2013-08-20 12:04:00,83.6,68.2,30.14,NW,306,0.0,7.0,60,0.00,FEW,,0.00,338.0,WeatherDisplay:10.37,2013-08-20 16:04:00,
2013-08-20 12:24:00,84.5,67.6,30.14,WNW,289,0.0,7.0,57,0.00,BKN,,0.00,218.0,WeatherDisplay:10.37,2013-08-20 16:24:00,
2013-08-20 12:34:00,84.2,67.3,30.13,North,8,3.0,7.0,57,0.00,BKN,,0.00,976.0,WeatherDisplay:10.37,2013-08-20 16:34:00,
2013-08-20 12:44:00,85.9,68.9,30.13,NE,38,1.0,8.0,57,0.00,OVC,,0.00,195.0,WeatherDisplay:10.37,2013-08-20 16:44:00,
2013-08-20 13:04:00,84.6,67.1,30.13,NE,34,1.0,8.0,56,0.00,BKN,,0.00,285.0,WeatherDisplay:10.37,2013-08-20 17:04:00,
2013-08-20 13:14:00,85.2,68.2,30.13,NE,36,0.0,3.0,57,0.00,FEW,,0.00,258.0,WeatherDisplay:10.37,2013-08-20 17:14:00,
2013-08-20 13:24:00,85.5,65.3,30.13,West,259,0.0,6.0,51,0.00,CLR,,0.00,1002.0,WeatherDisplay:10.37,2013-08-20 17:24:00,
2013-08-20 13:34:00,87.6,66.1,30.13,NW,317,1.0,5.0,49,0.00,CLR,,0.00,1030.0,WeatherDisplay:10.37,2013-08-20 17:34:00,
2013-08-20 13:44:00,86.6,65.2,30.12,WNW,286,0.0,8.0,49,0.00,CLR,,0.00,939.0,WeatherDisplay:10.37,2013-08-20 17:44:00,
2013-08-20 14:04:00,86.8,61.6,30.12,WNW,285,6.0,12.0,43,0.00,CLR,,0.00,928.0,WeatherDisplay:10.37,2013-08-20 18:04:00,
2013-08-20 14:14:00,87.6,63.0,30.12,WSW,253,1.0,10.0,44,0.00,CLR,,0.00,895.0,WeatherDisplay:10.37,2013-08-20 18:14:00,
2013-08-20 14:24:00,88.9,64.2,30.12,West,280,2.0,8.0,44,0.00,CLR,,0.00,900.0,WeatherDisplay:10.37,2013-08-20 18:24:00,
2013-08-20 14:34:00,89.8,65.7,30.12,NE,34,1.0,7.0,45,0.00,CLR,,0.00,889.0,WeatherDisplay:10.37,2013-08-20 18:34:00,
2013-08-20 14:44:00,88.5,63.8,30.11,NW,317,2.0,7.0,44,0.00,CLR,,0.00,872.0,WeatherDisplay:10.37,2013-08-20 18:44:00,
2013-08-20 14:54:00,88.3,64.9,30.11,NW,305,3.0,7.0,46,0.00,CLR,,0.00,851.0,WeatherDisplay:10.37,2013-08-20 18:54:00,
2013-08-20 15:04:00,88.1,64.7,30.11,WNW,291,1.0,12.0,46,0.00,CLR,,0.00,828.0,WeatherDisplay:10.37,2013-08-20 19:04:00,
2013-08-20 15:14:00,89.4,64.6,30.11,NNW,341,0.0,9.0,44,0.00,CLR,,0.00,803.0,WeatherDisplay:10.37,2013-08-20 19:14:00,
2013-08-20 15:34:00,87.6,64.9,30.10,WNW,292,1.0,6.0,47,0.00,CLR,,0.00,751.0,WeatherDisplay:10.37,2013-08-20 19:34:00,
2013-08-20 15:44:00,88.5,65.1,30.10,WNW,294,1.0,8.0,46,0.00,CLR,,0.00,717.0,WeatherDisplay:10.37,2013-08-20 19:44:00,
2013-08-20 15:54:00,88.7,64.6,30.10,NW,305,0.0,5.0,45,0.00,CLR,,0.00,721.0,WeatherDisplay:10.37,2013-08-20 19:54:00,
2013-08-20 16:04:00,87.9,63.9,30.10,West,279,0.0,7.0,45,0.00,CLR,,0.00,679.0,WeatherDisplay:10.37,2013-08-20 20:04:00,
2013-08-20 16:14:00,88.9,65.5,30.09,NNW,336,1.0,7.0,46,0.00,FEW,,0.00,649.0,WeatherDisplay:10.37,2013-08-20 20:14:00,
2013-08-20 16:24:00,89.0,64.9,30.09,NNE,29,2.0,7.0,45,0.00,FEW,,0.00,613.0,WeatherDisplay:10.37,2013-08-20 20:24:00,
2013-08-20 16:34:00,88.5,65.0,30.09,NW,306,1.0,6.0,46,0.00,FEW,,0.00,582.0,WeatherDisplay:10.37,2013-08-20 20:34:00,
2013-08-20 16:44:00,88.4,65.6,30.09,NNW,339,0.0,10.0,47,0.00,SCT,,0.00,125.0,WeatherDisplay:10.37,2013-08-20 20:44:00,
2013-08-20 16:54:00,87.5,66.0,30.09,WNW,301,2.0,8.0,49,0.00,SCT,,0.00,527.0,WeatherDisplay:10.37,2013-08-20 20:54:00,
2013-08-20 17:04:00,86.7,65.2,30.09,NW,310,0.0,6.0,49,0.00,SCT,,0.00,120.0,WeatherDisplay:10.37,2013-08-20 21:04:00,
2013-08-20 17:14:00,87.1,66.2,30.09,NW,320,0.0,6.0,50,0.00,CLR,,0.00,487.0,WeatherDisplay:10.37,2013-08-20 21:14:00,
2013-08-20 17:24:00,87.7,66.2,30.09,NNW,332,1.0,7.0,49,0.00,CLR,,0.00,431.0,WeatherDisplay:10.37,2013-08-20 21:24:00,
2013-08-20 17:44:00,87.1,66.8,30.09,NW,316,0.0,8.0,51,0.00,CLR,,0.00,360.0,WeatherDisplay:10.37,2013-08-20 21:44:00,
2013-08-20 17:54:00,86.8,66.5,30.09,NNE,13,0.0,8.0,51,0.00,CLR,,0.00,325.0,WeatherDisplay:10.37,2013-08-20 21:54:00,
2013-08-20 18:04:00,86.6,65.7,30.09,NNW,329,2.0,7.0,50,0.00,CLR,,0.00,287.0,WeatherDisplay:10.37,2013-08-20 22:04:00,
2013-08-20 18:14:00,85.3,66.8,30.09,WSW,245,0.0,6.0,54,0.00,SCT,,0.00,253.0,WeatherDisplay:10.37,2013-08-20 22:14:00,
2013-08-20 18:24:00,85.1,66.6,30.09,NNE,23,1.0,7.0,54,0.00,FEW,,0.00,216.0,WeatherDisplay:10.37,2013-08-20 22:24:00,
2013-08-20 18:34:00,84.8,66.8,30.09,North,349,0.0,3.0,55,0.00,BKN,,0.00,104.0,WeatherDisplay:10.37,2013-08-20 22:34:00,
2013-08-20 18:44:00,84.0,66.1,30.09,NW,317,0.0,6.0,55,0.00,OVC,,0.00,60.0,WeatherDisplay:10.37,2013-08-20 22:44:00,
2013-08-20 18:54:00,83.1,67.3,30.09,NW,322,0.0,0.0,59,0.00,CLR,,0.00,54.0,WeatherDisplay:10.37,2013-08-20 22:54:00,
2013-08-20 19:04:00,82.9,66.6,30.09,NW,315,0.0,2.0,58,0.00,CLR,,0.00,44.0,WeatherDisplay:10.37,2013-08-20 23:04:00,
2013-08-20 19:24:00,81.5,65.7,30.10,NNW,327,0.0,1.0,59,0.00,BKN,,0.00,39.0,WeatherDisplay:10.37,2013-08-20 23:24:00,
2013-08-20 19:34:00,80.6,66.4,30.10,NNW,327,0.0,0.0,62,0.00,BKN,,0.00,25.0,WeatherDisplay:10.37,2013-08-20 23:34:00,
2013-08-20 19:44:00,80.6,69.0,30.11,NNW,327,0.0,1.0,68,0.00,BKN,,0.00,11.0,WeatherDisplay:10.37,2013-08-20 23:44:00,
2013-08-20 19:54:00,80.9,71.0,30.11,WNW,302,0.0,5.0,72,0.00,BKN,,0.00,0.0,WeatherDisplay:10.37,2013-08-20 23:54:00,
2013-08-20 20:04:00,80.0,70.6,30.10,WNW,298,0.0,1.0,73,0.00,OVC,,0.00,0.0,WeatherDisplay:10.37,2013-08-21 00:04:00,
2013-08-20 20:24:00,79.0,70.8,30.11,WNW,298,0.0,1.0,76,0.00,BKN,,0.00,0.0,WeatherDisplay:10.37,2013-08-21 00:24:00,
2013-08-20 20:34:00,78.8,70.9,30.12,WNW,298,0.0,1.0,77,0.00,SCT,,0.00,0.0,WeatherDisplay:10.37,2013-08-21 00:34:00,
2013-08-20 20:44:00,78.0,70.6,30.12,WNW,298,1.0,5.0,78,0.00,SCT,,0.00,0.0,WeatherDisplay:10.37,2013-08-21 00:44:00,
2013-08-20 20:54:00,77.0,70.4,30.12,WNW,298,0.0,0.0,80,0.00,CLR,,0.00,0.0,WeatherDisplay:10.37,2013-08-21 00:54:00,
2013-08-20 21:14:00,75.3,70.1,30.13,WNW,298,0.0,1.0,84,0.00,SCT,,0.00,0.0,WeatherDisplay:10.37,2013-08-21 01:14:00,
2013-08-20 21:24:00,75.4,70.2,30.14,WNW,298,0.0,1.0,84,0.00,FEW,,0.00,0.0,WeatherDisplay:10.37,2013-08-21 01:24:00,
2013-08-20 21:34:00,75.1,69.9,30.14,WNW,298,0.0,1.0,84,0.00,FEW,,0.00,0.0,WeatherDisplay:10.37,2013-08-21 01:34:00,
2013-08-20 21:44:00,74.5,69.7,30.14,WNW,298,0.0,0.0,85,0.00,CLR,,0.00,0.0,WeatherDisplay:10.37,2013-08-21 01:44:00,
2013-08-20 21:54:00,73.8,69.7,30.14,WNW,298,0.0,0.0,87,0.00,CLR,,0.00,0.0,WeatherDisplay:10.37,2013-08-21 01:54:00,
2013-08-20 22:04:00,73.4,69.3,30.14,WNW,298,0.0,0.0,87,0.00,SCT,,0.00,0.0,WeatherDisplay:10.37,2013-08-21 02:04:00,
2013-08-20 22:14:00,73.2,69.4,30.14,WNW,298,0.0,0.0,88,0.00,SCT,,0.00,0.0,WeatherDisplay:10.37,2013-08-21 02:14:00,
2013-08-20 22:24:00,73.0,69.2,30.15,WNW,298,0.0,0.0,88,0.00,SCT,,0.00,0.0,WeatherDisplay:10.37,2013-08-21 02:24:00,
2013-08-20 22:34:00,72.8,69.0,30.15,WNW,297,0.0,0.0,88,0.00,CLR,,0.00,0.0,WeatherDisplay:10.37,2013-08-21 02:34:00,
2013-08-20 22:54:00,72.8,69.1,30.14,WNW,298,0.0,0.0,88,0.00,SCT,,0.00,0.0,WeatherDisplay:10.37,2013-08-21 02:54:00,
2013-08-20 23:04:00,72.7,68.9,30.15,WNW,298,0.0,1.0,88,0.00,SCT,,0.00,0.0,WeatherDisplay:10.37,2013-08-21 03:04:00,
2013-08-20 23:24:00,72.6,68.9,30.14,WNW,298,0.0,0.0,88,0.00,FEW,,0.00,0.0,WeatherDisplay:10.37,2013-08-21 03:24:00,
2013-08-20 23:34:00,72.5,68.7,30.15,WNW,298,0.0,0.0,88,0.00,FEW,,0.00,0.0,WeatherDisplay:10.37,2013-08-21 03:34:00,
2013-08-20 23:44:00,72.4,68.6,30.15,WNW,298,0.0,0.0,88,0.00,FEW,,0.00,0.0,WeatherDisplay:10.37,2013-08-21 03:44:00,
2013-08-20 23:54:00,72.2,68.4,30.15,WNW,298,0.0,0.0,88,0.00,CLR,,0.00,0.0,WeatherDisplay:10.37,2013-08-21 03:54:00,